Solway, Minnesota
Current Conditions -  °F | °C
As of 9:53 PM on Saturday 22 Nov 2014 (Local Time) from KBJI Reporting Station
Haze Haze  
Wind Chill: 23°   Ceiling: 700
Heat Index: 32°   Visibility: 4mi
Dew Point: 30°   Wind: 13mph
Humidity: 92%   Direction: 150°SSE
Pressure: 29.42"   Gusts: NA
Location:  47.52°N, 95.13°W
Report Text: KBJI 230353Z AUTO 15011KT 4SM BR OVC007 00/M01 A2942 RMK AO2 T00001012
Loading
Personal Weather Stations






























Interactive Weather Map New forecast layout! Learn more

10-Day Weather Forecast

Advertisements
Track Severe Weather on mobile